sensor_id;sensor_type;location;lat;lon;timestamp;P1;durP1;ratioP1;P2;durP2;ratioP2
24090;SDS011;12272;52.426;17.100;2022-10-16T00:03:53;48.03;;;29.70;;
24090;SDS011;12272;52.426;17.100;2022-10-16T00:08:57;52.70;;;32.33;;
24090;SDS011;12272;52.426;17.100;2022-10-16T00:14:00;45.97;;;29.97;;
24090;SDS011;12272;52.426;17.100;2022-10-16T00:19:05;49.03;;;28.40;;
24090;SDS011;12272;52.426;17.100;2022-10-16T00:24:07;49.83;;;30.20;;
24090;SDS011;12272;52.426;17.100;2022-10-16T00:29:11;49.87;;;29.80;;
24090;SDS011;12272;52.426;17.100;2022-10-16T00:34:14;44.10;;;29.60;;
24090;SDS011;12272;52.426;17.100;2022-10-16T00:39:16;43.80;;;28.47;;
24090;SDS011;12272;52.426;17.100;2022-10-16T00:50:11;42.83;;;25.47;;
24090;SDS011;12272;52.426;17.100;2022-10-16T00:55:18;41.57;;;26.03;;
24090;SDS011;12272;52.426;17.100;2022-10-16T01:00:22;44.93;;;26.97;;
24090;SDS011;12272;52.426;17.100;2022-10-16T01:05:34;44.80;;;26.90;;
24090;SDS011;12272;52.426;17.100;2022-10-16T01:11:00;40.00;;;24.53;;
24090;SDS011;12272;52.426;17.100;2022-10-16T01:16:13;35.97;;;24.17;;
24090;SDS011;12272;52.426;17.100;2022-10-16T01:21:31;40.00;;;24.30;;
24090;SDS011;12272;52.426;17.100;2022-10-16T01:26:52;37.73;;;24.33;;
24090;SDS011;12272;52.426;17.100;2022-10-16T01:43:07;44.43;;;25.20;;
24090;SDS011;12272;52.426;17.100;2022-10-16T01:48:14;36.03;;;23.63;;
24090;SDS011;12272;52.426;17.100;2022-10-16T01:53:20;37.37;;;23.90;;
24090;SDS011;12272;52.426;17.100;2022-10-16T01:58:26;41.17;;;24.97;;
24090;SDS011;12272;52.426;17.100;2022-10-16T02:03:36;36.70;;;24.13;;
24090;SDS011;12272;52.426;17.100;2022-10-16T02:08:42;35.73;;;22.90;;
24090;SDS011;12272;52.426;17.100;2022-10-16T02:13:51;32.93;;;22.73;;
24090;SDS011;12272;52.426;17.100;2022-10-16T02:19:00;39.10;;;23.13;;
24090;SDS011;12272;52.426;17.100;2022-10-16T02:24:07;34.77;;;21.73;;
24090;SDS011;12272;52.426;17.100;2022-10-16T02:29:16;34.77;;;23.00;;
24090;SDS011;12272;52.426;17.100;2022-10-16T02:34:24;37.13;;;22.83;;
24090;SDS011;12272;52.426;17.100;2022-10-16T02:39:29;36.37;;;22.27;;
24090;SDS011;12272;52.426;17.100;2022-10-16T02:44:32;35.00;;;22.23;;
24090;SDS011;12272;52.426;17.100;2022-10-16T02:49:34;35.40;;;23.00;;
24090;SDS011;12272;52.426;17.100;2022-10-16T02:54:37;32.53;;;22.43;;
24090;SDS011;12272;52.426;17.100;2022-10-16T02:59:39;37.10;;;24.07;;
24090;SDS011;12272;52.426;17.100;2022-10-16T03:04:42;36.77;;;23.17;;
24090;SDS011;12272;52.426;17.100;2022-10-16T03:09:44;38.60;;;24.10;;
24090;SDS011;12272;52.426;17.100;2022-10-16T03:14:47;37.10;;;23.10;;
24090;SDS011;12272;52.426;17.100;2022-10-16T03:19:49;36.87;;;24.13;;
24090;SDS011;12272;52.426;17.100;2022-10-16T03:24:52;37.10;;;23.87;;
24090;SDS011;12272;52.426;17.100;2022-10-16T03:29:55;40.70;;;24.50;;
24090;SDS011;12272;52.426;17.100;2022-10-16T03:34:57;38.07;;;23.63;;
24090;SDS011;12272;52.426;17.100;2022-10-16T03:40:00;45.90;;;26.93;;
24090;SDS011;12272;52.426;17.100;2022-10-16T03:45:03;41.07;;;25.97;;
24090;SDS011;12272;52.426;17.100;2022-10-16T03:50:06;41.13;;;26.00;;
24090;SDS011;12272;52.426;17.100;2022-10-16T03:55:09;41.63;;;24.63;;
24090;SDS011;12272;52.426;17.100;2022-10-16T04:00:12;36.87;;;24.47;;
24090;SDS011;12272;52.426;17.100;2022-10-16T04:05:14;38.43;;;22.87;;
24090;SDS011;12272;52.426;17.100;2022-10-16T04:10:17;32.97;;;21.40;;
24090;SDS011;12272;52.426;17.100;2022-10-16T04:15:19;35.10;;;22.70;;
24090;SDS011;12272;52.426;17.100;2022-10-16T04:20:22;34.20;;;20.73;;
24090;SDS011;12272;52.426;17.100;2022-10-16T04:25:27;33.47;;;21.90;;
24090;SDS011;12272;52.426;17.100;2022-10-16T04:30:30;32.07;;;20.47;;
24090;SDS011;12272;52.426;17.100;2022-10-16T04:35:33;33.97;;;21.87;;
24090;SDS011;12272;52.426;17.100;2022-10-16T04:40:35;29.17;;;20.17;;
24090;SDS011;12272;52.426;17.100;2022-10-16T04:45:38;30.90;;;21.53;;
24090;SDS011;12272;52.426;17.100;2022-10-16T04:50:40;29.83;;;19.97;;
24090;SDS011;12272;52.426;17.100;2022-10-16T04:55:43;30.00;;;19.70;;
24090;SDS011;12272;52.426;17.100;2022-10-16T05:00:46;29.17;;;19.87;;
24090;SDS011;12272;52.426;17.100;2022-10-16T05:05:48;31.37;;;20.23;;
24090;SDS011;12272;52.426;17.100;2022-10-16T05:10:51;30.13;;;19.13;;
24090;SDS011;12272;52.426;17.100;2022-10-16T05:15:53;31.90;;;20.47;;
24090;SDS011;12272;52.426;17.100;2022-10-16T05:20:56;35.40;;;19.57;;
24090;SDS011;12272;52.426;17.100;2022-10-16T05:25:58;35.70;;;18.97;;
24090;SDS011;12272;52.426;17.100;2022-10-16T05:31:08;41.07;;;22.17;;
24090;SDS011;12272;52.426;17.100;2022-10-16T05:36:11;32.33;;;20.60;;
24090;SDS011;12272;52.426;17.100;2022-10-16T05:41:13;29.80;;;19.03;;
24090;SDS011;12272;52.426;17.100;2022-10-16T05:46:16;34.03;;;20.93;;
24090;SDS011;12272;52.426;17.100;2022-10-16T05:51:19;28.60;;;20.17;;
24090;SDS011;12272;52.426;17.100;2022-10-16T05:56:21;28.10;;;18.33;;
24090;SDS011;12272;52.426;17.100;2022-10-16T06:01:24;28.37;;;17.93;;
24090;SDS011;12272;52.426;17.100;2022-10-16T06:06:27;29.70;;;19.30;;
24090;SDS011;12272;52.426;17.100;2022-10-16T06:11:31;26.93;;;18.10;;
24090;SDS011;12272;52.426;17.100;2022-10-16T06:16:35;31.97;;;19.53;;
24090;SDS011;12272;52.426;17.100;2022-10-16T06:21:38;30.27;;;18.40;;
24090;SDS011;12272;52.426;17.100;2022-10-16T06:26:41;31.33;;;20.00;;
24090;SDS011;12272;52.426;17.100;2022-10-16T06:31:43;28.43;;;17.87;;
24090;SDS011;12272;52.426;17.100;2022-10-16T06:36:45;27.93;;;19.33;;
24090;SDS011;12272;52.426;17.100;2022-10-16T06:41:48;25.30;;;16.87;;
24090;SDS011;12272;52.426;17.100;2022-10-16T06:46:50;30.07;;;19.17;;
24090;SDS011;12272;52.426;17.100;2022-10-16T06:51:53;34.17;;;23.20;;
24090;SDS011;12272;52.426;17.100;2022-10-16T06:56:55;30.40;;;20.70;;
24090;SDS011;12272;52.426;17.100;2022-10-16T07:01:58;34.97;;;23.57;;
24090;SDS011;12272;52.426;17.100;2022-10-16T07:07:01;32.40;;;22.43;;
24090;SDS011;12272;52.426;17.100;2022-10-16T07:12:09;32.60;;;22.97;;
24090;SDS011;12272;52.426;17.100;2022-10-16T07:17:11;32.90;;;22.03;;
24090;SDS011;12272;52.426;17.100;2022-10-16T07:22:14;35.77;;;22.57;;
24090;SDS011;12272;52.426;17.100;2022-10-16T07:27:16;30.93;;;21.47;;
24090;SDS011;12272;52.426;17.100;2022-10-16T07:32:19;27.57;;;19.00;;
24090;SDS011;12272;52.426;17.100;2022-10-16T07:37:21;33.70;;;21.30;;
24090;SDS011;12272;52.426;17.100;2022-10-16T07:42:24;26.70;;;18.37;;
24090;SDS011;12272;52.426;17.100;2022-10-16T07:47:26;23.00;;;17.17;;
24090;SDS011;12272;52.426;17.100;2022-10-16T07:52:30;25.90;;;17.90;;
24090;SDS011;12272;52.426;17.100;2022-10-16T07:57:33;19.77;;;15.47;;
24090;SDS011;12272;52.426;17.100;2022-10-16T08:02:35;20.97;;;15.67;;
24090;SDS011;12272;52.426;17.100;2022-10-16T08:07:38;23.90;;;15.90;;
24090;SDS011;12272;52.426;17.100;2022-10-16T08:12:40;22.80;;;15.97;;
24090;SDS011;12272;52.426;17.100;2022-10-16T08:17:42;21.23;;;15.97;;
24090;SDS011;12272;52.426;17.100;2022-10-16T08:22:45;21.10;;;16.57;;
24090;SDS011;12272;52.426;17.100;2022-10-16T08:27:48;23.50;;;17.20;;
24090;SDS011;12272;52.426;17.100;2022-10-16T08:32:50;22.10;;;14.30;;
24090;SDS011;12272;52.426;17.100;2022-10-16T08:37:53;15.53;;;13.00;;
24090;SDS011;12272;52.426;17.100;2022-10-16T08:58:46;16.53;;;12.80;;
24090;SDS011;12272;52.426;17.100;2022-10-16T09:19:58;15.30;;;11.10;;
24090;SDS011;12272;52.426;17.100;2022-10-16T09:25:20;11.73;;;10.03;;
24090;SDS011;12272;52.426;17.100;2022-10-16T09:30:25;13.67;;;10.63;;
24090;SDS011;12272;52.426;17.100;2022-10-16T09:35:32;11.27;;;9.07;;
24090;SDS011;12272;52.426;17.100;2022-10-16T09:40:39;12.03;;;9.47;;
24090;SDS011;12272;52.426;17.100;2022-10-16T09:45:54;12.17;;;9.47;;
24090;SDS011;12272;52.426;17.100;2022-10-16T09:50:59;13.17;;;10.70;;
24090;SDS011;12272;52.426;17.100;2022-10-16T09:56:04;11.50;;;10.30;;
24090;SDS011;12272;52.426;17.100;2022-10-16T10:01:14;10.03;;;8.93;;
24090;SDS011;12272;52.426;17.100;2022-10-16T10:06:18;15.73;;;11.53;;
24090;SDS011;12272;52.426;17.100;2022-10-16T10:17:01;13.77;;;11.03;;
24090;SDS011;12272;52.426;17.100;2022-10-16T10:44:24;9.13;;;8.17;;
24090;SDS011;12272;52.426;17.100;2022-10-16T11:06:06;10.43;;;9.27;;
24090;SDS011;12272;52.426;17.100;2022-10-16T11:11:35;11.83;;;9.17;;
24090;SDS011;12272;52.426;17.100;2022-10-16T11:16:52;11.97;;;9.57;;
24090;SDS011;12272;52.426;17.100;2022-10-16T11:38:41;11.57;;;9.63;;
24090;SDS011;12272;52.426;17.100;2022-10-16T11:49:18;9.83;;;7.57;;
24090;SDS011;12272;52.426;17.100;2022-10-16T11:59:58;9.80;;;8.47;;
24090;SDS011;12272;52.426;17.100;2022-10-16T12:10:20;7.40;;;6.40;;
24090;SDS011;12272;52.426;17.100;2022-10-16T12:15:30;8.27;;;6.37;;
24090;SDS011;12272;52.426;17.100;2022-10-16T12:20:57;7.60;;;6.33;;
24090;SDS011;12272;52.426;17.100;2022-10-16T12:26:06;7.20;;;6.10;;
24090;SDS011;12272;52.426;17.100;2022-10-16T12:31:08;7.33;;;6.63;;
24090;SDS011;12272;52.426;17.100;2022-10-16T12:36:15;9.60;;;7.00;;
24090;SDS011;12272;52.426;17.100;2022-10-16T12:41:30;7.43;;;6.40;;
24090;SDS011;12272;52.426;17.100;2022-10-16T12:51:37;11.43;;;9.33;;
24090;SDS011;12272;52.426;17.100;2022-10-16T12:56:42;12.87;;;10.97;;
24090;SDS011;12272;52.426;17.100;2022-10-16T13:02:08;12.33;;;9.63;;
24090;SDS011;12272;52.426;17.100;2022-10-16T13:23:16;7.97;;;6.57;;
24090;SDS011;12272;52.426;17.100;2022-10-16T13:28:28;8.27;;;6.57;;
24090;SDS011;12272;52.426;17.100;2022-10-16T13:33:35;10.63;;;7.17;;
24090;SDS011;12272;52.426;17.100;2022-10-16T13:38:39;10.53;;;7.77;;
24090;SDS011;12272;52.426;17.100;2022-10-16T13:43:45;12.00;;;10.03;;
24090;SDS011;12272;52.426;17.100;2022-10-16T13:49:04;14.03;;;10.97;;
24090;SDS011;12272;52.426;17.100;2022-10-16T13:54:13;14.73;;;11.03;;
24090;SDS011;12272;52.426;17.100;2022-10-16T13:59:34;14.60;;;12.33;;
24090;SDS011;12272;52.426;17.100;2022-10-16T14:04:40;11.83;;;10.27;;
24090;SDS011;12272;52.426;17.100;2022-10-16T14:09:47;9.53;;;8.00;;
24090;SDS011;12272;52.426;17.100;2022-10-16T14:14:51;12.40;;;10.03;;
24090;SDS011;12272;52.426;17.100;2022-10-16T14:19:57;11.00;;;9.53;;
24090;SDS011;12272;52.426;17.100;2022-10-16T14:30:21;10.27;;;8.67;;
24090;SDS011;12272;52.426;17.100;2022-10-16T14:35:25;8.43;;;7.63;;
24090;SDS011;12272;52.426;17.100;2022-10-16T14:40:34;8.97;;;8.03;;
24090;SDS011;12272;52.426;17.100;2022-10-16T14:45:38;5.30;;;4.77;;
24090;SDS011;12272;52.426;17.100;2022-10-16T14:50:43;7.67;;;6.70;;
24090;SDS011;12272;52.426;17.100;2022-10-16T14:55:46;10.20;;;8.73;;
24090;SDS011;12272;52.426;17.100;2022-10-16T15:00:50;10.67;;;9.17;;
24090;SDS011;12272;52.426;17.100;2022-10-16T15:05:53;11.20;;;8.30;;
24090;SDS011;12272;52.426;17.100;2022-10-16T15:10:55;7.17;;;6.47;;
24090;SDS011;12272;52.426;17.100;2022-10-16T15:15:58;9.80;;;8.07;;
24090;SDS011;12272;52.426;17.100;2022-10-16T15:21:00;10.27;;;8.93;;
24090;SDS011;12272;52.426;17.100;2022-10-16T15:26:03;12.30;;;7.90;;
24090;SDS011;12272;52.426;17.100;2022-10-16T15:31:05;7.87;;;7.07;;
24090;SDS011;12272;52.426;17.100;2022-10-16T15:36:08;10.77;;;9.27;;
24090;SDS011;12272;52.426;17.100;2022-10-16T15:41:10;8.67;;;7.43;;
24090;SDS011;12272;52.426;17.100;2022-10-16T15:46:12;7.57;;;6.87;;
24090;SDS011;12272;52.426;17.100;2022-10-16T15:51:16;6.90;;;6.20;;
24090;SDS011;12272;52.426;17.100;2022-10-16T15:56:20;11.70;;;8.03;;
24090;SDS011;12272;52.426;17.100;2022-10-16T16:01:24;9.87;;;7.37;;
24090;SDS011;12272;52.426;17.100;2022-10-16T16:06:26;12.50;;;7.70;;
24090;SDS011;12272;52.426;17.100;2022-10-16T16:11:30;10.83;;;7.80;;
24090;SDS011;12272;52.426;17.100;2022-10-16T16:16:33;9.77;;;7.53;;
24090;SDS011;12272;52.426;17.100;2022-10-16T16:21:39;13.50;;;7.50;;
24090;SDS011;12272;52.426;17.100;2022-10-16T16:26:41;16.87;;;8.80;;
24090;SDS011;12272;52.426;17.100;2022-10-16T16:31:45;12.03;;;8.37;;
24090;SDS011;12272;52.426;17.100;2022-10-16T16:36:49;12.97;;;9.80;;
24090;SDS011;12272;52.426;17.100;2022-10-16T16:41:51;18.37;;;10.57;;
24090;SDS011;12272;52.426;17.100;2022-10-16T16:46:54;21.47;;;11.13;;
24090;SDS011;12272;52.426;17.100;2022-10-16T16:51:57;15.33;;;10.37;;
24090;SDS011;12272;52.426;17.100;2022-10-16T16:56:59;14.10;;;10.50;;
24090;SDS011;12272;52.426;17.100;2022-10-16T17:02:02;22.43;;;10.73;;
24090;SDS011;12272;52.426;17.100;2022-10-16T17:07:05;28.40;;;18.73;;
24090;SDS011;12272;52.426;17.100;2022-10-16T17:12:08;33.43;;;17.70;;
24090;SDS011;12272;52.426;17.100;2022-10-16T17:17:11;35.33;;;22.47;;
24090;SDS011;12272;52.426;17.100;2022-10-16T17:22:14;36.23;;;24.80;;
24090;SDS011;12272;52.426;17.100;2022-10-16T17:27:17;53.60;;;35.57;;
24090;SDS011;12272;52.426;17.100;2022-10-16T17:32:20;41.77;;;26.33;;
24090;SDS011;12272;52.426;17.100;2022-10-16T17:37:24;49.77;;;32.17;;
24090;SDS011;12272;52.426;17.100;2022-10-16T17:42:27;53.03;;;32.87;;
24090;SDS011;12272;52.426;17.100;2022-10-16T17:47:30;57.63;;;35.57;;
24090;SDS011;12272;52.426;17.100;2022-10-16T17:52:32;61.60;;;37.80;;
24090;SDS011;12272;52.426;17.100;2022-10-16T17:57:35;63.80;;;40.77;;
24090;SDS011;12272;52.426;17.100;2022-10-16T18:02:37;67.60;;;42.03;;
24090;SDS011;12272;52.426;17.100;2022-10-16T18:07:43;80.47;;;47.83;;
24090;SDS011;12272;52.426;17.100;2022-10-16T18:12:45;66.23;;;42.40;;
24090;SDS011;12272;52.426;17.100;2022-10-16T18:17:48;75.27;;;44.90;;
24090;SDS011;12272;52.426;17.100;2022-10-16T18:22:50;84.30;;;53.07;;
24090;SDS011;12272;52.426;17.100;2022-10-16T18:27:52;84.60;;;52.37;;
24090;SDS011;12272;52.426;17.100;2022-10-16T18:32:55;77.33;;;45.47;;
24090;SDS011;12272;52.426;17.100;2022-10-16T18:37:58;71.10;;;45.27;;
24090;SDS011;12272;52.426;17.100;2022-10-16T18:43:01;70.63;;;44.97;;
24090;SDS011;12272;52.426;17.100;2022-10-16T18:48:04;69.70;;;44.73;;
24090;SDS011;12272;52.426;17.100;2022-10-16T18:53:07;71.97;;;47.13;;
24090;SDS011;12272;52.426;17.100;2022-10-16T18:58:09;66.37;;;42.93;;
24090;SDS011;12272;52.426;17.100;2022-10-16T19:03:12;72.27;;;44.57;;
24090;SDS011;12272;52.426;17.100;2022-10-16T19:08:14;74.83;;;43.60;;
24090;SDS011;12272;52.426;17.100;2022-10-16T19:13:17;75.70;;;48.27;;
24090;SDS011;12272;52.426;17.100;2022-10-16T19:18:19;76.23;;;45.13;;
24090;SDS011;12272;52.426;17.100;2022-10-16T19:23:27;81.97;;;50.53;;
24090;SDS011;12272;52.426;17.100;2022-10-16T19:28:30;83.80;;;46.40;;
24090;SDS011;12272;52.426;17.100;2022-10-16T19:33:33;60.70;;;37.90;;
24090;SDS011;12272;52.426;17.100;2022-10-16T19:38:36;62.50;;;38.30;;
24090;SDS011;12272;52.426;17.100;2022-10-16T19:43:39;71.50;;;41.03;;
24090;SDS011;12272;52.426;17.100;2022-10-16T19:48:42;79.83;;;45.90;;
24090;SDS011;12272;52.426;17.100;2022-10-16T19:53:47;66.60;;;43.80;;
24090;SDS011;12272;52.426;17.100;2022-10-16T19:58:55;78.27;;;45.03;;
24090;SDS011;12272;52.426;17.100;2022-10-16T20:03:58;63.90;;;38.57;;
24090;SDS011;12272;52.426;17.100;2022-10-16T20:09:01;73.30;;;40.93;;
24090;SDS011;12272;52.426;17.100;2022-10-16T20:14:05;82.07;;;43.00;;
24090;SDS011;12272;52.426;17.100;2022-10-16T20:19:09;69.10;;;40.27;;
24090;SDS011;12272;52.426;17.100;2022-10-16T20:24:11;87.87;;;51.03;;
24090;SDS011;12272;52.426;17.100;2022-10-16T20:29:14;97.03;;;54.13;;
24090;SDS011;12272;52.426;17.100;2022-10-16T20:34:16;72.93;;;43.27;;
24090;SDS011;12272;52.426;17.100;2022-10-16T20:39:19;89.83;;;47.23;;
24090;SDS011;12272;52.426;17.100;2022-10-16T20:44:21;73.63;;;45.80;;
24090;SDS011;12272;52.426;17.100;2022-10-16T20:49:24;73.63;;;44.43;;
24090;SDS011;12272;52.426;17.100;2022-10-16T20:54:43;90.20;;;51.87;;
24090;SDS011;12272;52.426;17.100;2022-10-16T20:59:47;89.67;;;49.10;;
24090;SDS011;12272;52.426;17.100;2022-10-16T21:04:49;78.53;;;42.97;;
24090;SDS011;12272;52.426;17.100;2022-10-16T21:09:55;82.30;;;44.70;;
24090;SDS011;12272;52.426;17.100;2022-10-16T21:14:58;77.53;;;43.53;;
24090;SDS011;12272;52.426;17.100;2022-10-16T21:20:15;70.30;;;42.40;;
24090;SDS011;12272;52.426;17.100;2022-10-16T21:25:18;65.63;;;38.30;;
24090;SDS011;12272;52.426;17.100;2022-10-16T21:30:20;60.40;;;34.17;;
24090;SDS011;12272;52.426;17.100;2022-10-16T21:35:23;60.00;;;34.93;;
24090;SDS011;12272;52.426;17.100;2022-10-16T21:40:27;51.50;;;31.37;;
24090;SDS011;12272;52.426;17.100;2022-10-16T21:45:31;47.43;;;31.97;;
24090;SDS011;12272;52.426;17.100;2022-10-16T21:50:34;50.73;;;29.87;;
24090;SDS011;12272;52.426;17.100;2022-10-16T21:55:37;46.10;;;30.30;;
24090;SDS011;12272;52.426;17.100;2022-10-16T22:00:39;53.70;;;32.90;;
24090;SDS011;12272;52.426;17.100;2022-10-16T22:05:41;52.20;;;32.73;;
24090;SDS011;12272;52.426;17.100;2022-10-16T22:10:44;43.47;;;28.20;;
24090;SDS011;12272;52.426;17.100;2022-10-16T22:15:50;46.00;;;28.50;;
24090;SDS011;12272;52.426;17.100;2022-10-16T22:20:53;43.70;;;26.33;;
24090;SDS011;12272;52.426;17.100;2022-10-16T22:25:59;39.17;;;24.77;;
24090;SDS011;12272;52.426;17.100;2022-10-16T22:31:04;37.20;;;24.03;;
24090;SDS011;12272;52.426;17.100;2022-10-16T22:36:09;33.67;;;22.30;;
24090;SDS011;12272;52.426;17.100;2022-10-16T22:41:13;35.87;;;22.17;;
24090;SDS011;12272;52.426;17.100;2022-10-16T22:46:17;32.13;;;21.23;;
24090;SDS011;12272;52.426;17.100;2022-10-16T22:51:22;35.47;;;22.87;;
24090;SDS011;12272;52.426;17.100;2022-10-16T22:56:26;34.30;;;22.73;;
24090;SDS011;12272;52.426;17.100;2022-10-16T23:01:30;34.40;;;21.37;;
24090;SDS011;12272;52.426;17.100;2022-10-16T23:06:41;33.63;;;21.37;;
24090;SDS011;12272;52.426;17.100;2022-10-16T23:11:43;32.97;;;20.77;;
24090;SDS011;12272;52.426;17.100;2022-10-16T23:16:46;33.67;;;23.00;;
24090;SDS011;12272;52.426;17.100;2022-10-16T23:21:49;32.10;;;21.13;;
24090;SDS011;12272;52.426;17.100;2022-10-16T23:26:51;32.57;;;20.00;;
24090;SDS011;12272;52.426;17.100;2022-10-16T23:31:54;32.63;;;20.30;;
24090;SDS011;12272;52.426;17.100;2022-10-16T23:36:57;28.57;;;20.53;;
24090;SDS011;12272;52.426;17.100;2022-10-16T23:41:59;29.63;;;20.03;;
24090;SDS011;12272;52.426;17.100;2022-10-16T23:47:02;28.90;;;20.17;;
24090;SDS011;12272;52.426;17.100;2022-10-16T23:52:04;31.33;;;19.87;;
24090;SDS011;12272;52.426;17.100;2022-10-16T23:57:08;30.80;;;19.63;;
